createdAt,value
2023-01-11T00:04:30.662Z,4.10
2023-01-11T00:09:34.087Z,4.23
2023-01-11T00:14:37.200Z,3.60
2023-01-11T00:19:41.848Z,3.43
2023-01-11T00:24:44.937Z,3.37
2023-01-11T00:29:47.944Z,3.83
2023-01-11T00:34:52.522Z,3.40
2023-01-11T00:39:58.400Z,3.70
2023-01-11T00:45:19.071Z,3.67
2023-01-11T00:50:26.552Z,2.90
2023-01-11T00:55:29.669Z,3.20
2023-01-11T01:00:32.678Z,2.70
2023-01-11T01:05:39.057Z,3.47
2023-01-11T01:10:42.039Z,2.80
2023-01-11T01:15:45.266Z,2.63
2023-01-11T01:20:55.140Z,2.70
2023-01-11T01:25:58.138Z,3.17
2023-01-11T01:31:01.498Z,4.00
2023-01-11T01:36:06.352Z,3.03
2023-01-11T01:41:09.454Z,3.10
2023-01-11T01:46:12.807Z,3.60
2023-01-11T01:51:22.126Z,3.07
2023-01-11T01:56:29.644Z,3.70
2023-01-11T02:01:51.141Z,3.33
2023-01-11T02:07:00.721Z,4.50
2023-01-11T02:12:04.422Z,3.67
2023-01-11T02:17:07.440Z,3.60
2023-01-11T02:22:39.144Z,3.97
2023-01-11T02:27:57.086Z,4.03
2023-01-11T02:33:07.767Z,5.10
2023-01-11T02:38:23.025Z,4.10
2023-01-11T02:43:49.455Z,3.60
2023-01-11T02:49:00.807Z,3.40
2023-01-11T02:54:08.297Z,4.40
2023-01-11T02:59:17.930Z,3.27
2023-01-11T03:04:26.085Z,3.20
2023-01-11T03:09:38.560Z,3.20
2023-01-11T03:14:52.182Z,2.73
2023-01-11T03:19:58.659Z,3.00
2023-01-11T03:25:09.302Z,2.37
2023-01-11T03:30:20.876Z,2.13
2023-01-11T03:35:32.906Z,1.90
2023-01-11T03:40:41.120Z,1.60
2023-01-11T03:45:50.979Z,1.73
2023-01-11T03:50:59.088Z,1.70
2023-01-11T03:56:04.193Z,2.00
2023-01-11T04:01:09.093Z,2.33
2023-01-11T04:06:12.789Z,2.47
2023-01-11T04:11:15.830Z,3.37
2023-01-11T04:16:20.288Z,3.73
2023-01-11T04:21:23.506Z,3.60
2023-01-11T04:26:26.708Z,3.93
2023-01-11T04:31:31.198Z,3.80
2023-01-11T04:36:34.414Z,3.80
2023-01-11T04:41:57.525Z,3.77
2023-01-11T04:47:01.938Z,4.37
2023-01-11T04:52:05.535Z,3.50
2023-01-11T04:57:11.955Z,3.97
2023-01-11T05:02:16.930Z,4.33
2023-01-11T05:07:20.021Z,3.93
2023-01-11T05:12:24.443Z,4.10
2023-01-11T05:17:28.848Z,3.73
2023-01-11T05:22:32.027Z,4.07
2023-01-11T05:27:34.944Z,3.80
2023-01-11T05:32:42.100Z,4.50
2023-01-11T05:37:45.009Z,4.07
2023-01-11T05:42:48.152Z,3.53
2023-01-11T05:47:55.171Z,3.63
2023-01-11T05:52:58.563Z,3.67
2023-01-11T05:58:01.961Z,3.63
2023-01-11T06:03:06.476Z,4.27
2023-01-11T06:08:09.875Z,3.73
2023-01-11T06:13:28.119Z,3.47
2023-01-11T06:18:34.391Z,3.77
2023-01-11T06:23:39.649Z,3.70
2023-01-11T06:28:42.837Z,3.53
2023-01-11T06:33:47.912Z,3.20
2023-01-11T06:38:51.150Z,3.30
2023-01-11T06:43:56.845Z,2.83
2023-01-11T06:49:03.323Z,3.03
2023-01-11T06:54:06.400Z,2.80
2023-01-11T06:59:11.537Z,3.00
2023-01-11T07:04:17.150Z,3.73
2023-01-11T07:09:20.270Z,4.87
2023-01-11T07:14:25.191Z,3.43
2023-01-11T07:19:29.596Z,2.93
2023-01-11T07:24:32.613Z,2.97
2023-01-11T07:29:38.263Z,3.57
2023-01-11T07:34:42.689Z,3.00
2023-01-11T07:39:46.656Z,3.03
2023-01-11T07:44:49.698Z,3.03
2023-01-11T07:49:59.361Z,3.47
2023-01-11T07:55:03.311Z,3.30
2023-01-11T08:00:07.286Z,3.47
2023-01-11T08:05:15.858Z,3.67
2023-01-11T08:10:19.176Z,3.60
2023-01-11T08:15:23.642Z,3.60
2023-01-11T08:20:28.978Z,4.00
2023-01-11T08:25:32.232Z,3.67
2023-01-11T08:30:35.857Z,3.37
2023-01-11T08:35:40.783Z,4.13
2023-01-11T08:40:43.797Z,3.47
2023-01-11T08:45:46.835Z,4.07
2023-01-11T08:50:51.241Z,3.47
2023-01-11T08:55:55.272Z,3.40
2023-01-11T09:00:59.209Z,3.60
2023-01-11T09:06:03.641Z,3.07
2023-01-11T09:11:26.970Z,3.63
2023-01-11T09:16:30.165Z,3.53
2023-01-11T09:21:34.973Z,3.30
2023-01-11T09:26:38.715Z,3.97
2023-01-11T09:31:42.339Z,3.37
2023-01-11T09:36:48.781Z,3.90
2023-01-11T09:42:22.413Z,3.50
2023-01-11T09:47:33.843Z,4.40
2023-01-11T09:52:42.202Z,3.37
2023-01-11T09:57:58.391Z,3.77
2023-01-11T10:03:35.562Z,3.20
2023-01-11T10:18:29.668Z,3.00
2023-01-11T10:20:01.359Z,3.77
2023-01-11T10:25:18.865Z,3.53
2023-01-11T10:30:44.228Z,2.97
2023-01-11T10:36:10.609Z,2.90
2023-01-11T10:41:26.129Z,3.77
2023-01-11T10:46:33.174Z,3.97
2023-01-11T10:51:40.429Z,3.17
2023-01-11T10:57:04.730Z,3.60
2023-01-11T11:02:22.395Z,3.00
2023-01-11T11:07:34.542Z,3.00
2023-01-11T11:12:42.966Z,2.93
2023-01-11T11:17:50.444Z,3.20
2023-01-11T11:22:58.349Z,3.07
2023-01-11T11:28:06.776Z,2.87
2023-01-11T11:33:18.593Z,3.50
2023-01-11T11:38:24.673Z,3.10
2023-01-11T11:43:29.434Z,3.60
2023-01-11T11:48:34.436Z,3.67
2023-01-11T11:53:43.661Z,5.00
2023-01-11T11:58:48.725Z,3.97
2023-01-11T12:03:53.399Z,4.80
2023-01-11T12:08:57.865Z,3.67
2023-01-11T12:14:16.682Z,3.93
2023-01-11T12:19:30.674Z,3.33
2023-01-11T12:24:33.918Z,3.77
2023-01-11T12:30:05.163Z,3.53
2023-01-11T12:35:34.931Z,3.80
2023-01-11T12:40:47.340Z,4.00
2023-01-11T12:46:03.242Z,3.80
2023-01-11T12:51:24.200Z,4.33
2023-01-11T12:56:49.935Z,3.80
2023-01-11T13:02:14.616Z,4.20
2023-01-11T13:07:32.211Z,4.73
2023-01-11T13:12:42.576Z,4.17
2023-01-11T13:17:54.289Z,3.77
2023-01-11T13:23:04.427Z,4.47
2023-01-11T13:28:23.918Z,3.53
2023-01-11T13:33:31.975Z,4.43
2023-01-11T13:38:40.327Z,3.90
2023-01-11T13:43:48.026Z,3.77
2023-01-11T13:48:57.354Z,4.60
2023-01-11T13:54:05.528Z,3.37
2023-01-11T13:59:14.048Z,3.30
2023-01-11T14:04:22.887Z,4.00
2023-01-11T14:09:44.877Z,3.80
2023-01-11T14:15:31.546Z,3.50
2023-01-11T14:20:45.507Z,3.80
2023-01-11T14:26:31.343Z,3.53
2023-01-11T14:31:56.550Z,3.87
2023-01-11T14:37:33.990Z,4.03
2023-01-11T14:43:12.946Z,3.70
2023-01-11T14:48:25.258Z,3.07
2023-01-11T14:53:37.442Z,3.27
2023-01-11T14:59:01.089Z,3.73
2023-01-11T15:04:04.284Z,3.30
2023-01-11T15:09:44.357Z,3.60
2023-01-11T15:14:49.314Z,3.47
2023-01-11T15:19:56.490Z,4.03
2023-01-11T15:25:05.160Z,3.60
2023-01-11T15:30:29.818Z,2.93
2023-01-11T15:35:34.771Z,2.93
2023-01-11T15:40:41.754Z,3.40
2023-01-11T15:46:24.429Z,3.20
2023-01-11T15:51:49.650Z,2.50
2023-01-11T15:57:28.683Z,2.97
2023-01-11T16:03:01.105Z,2.93
2023-01-11T16:08:18.031Z,3.10
2023-01-11T16:13:35.717Z,3.83
2023-01-11T16:18:44.364Z,2.50
2023-01-11T16:23:47.713Z,2.57
2023-01-11T16:28:55.599Z,2.60
2023-01-11T16:34:07.556Z,2.40
2023-01-11T16:39:15.004Z,2.97
2023-01-11T16:44:29.128Z,2.60
2023-01-11T16:49:32.355Z,2.50
2023-01-11T16:54:38.939Z,2.67
2023-01-11T16:59:43.389Z,2.87
2023-01-11T17:04:51.711Z,3.17
2023-01-11T17:10:22.866Z,2.50
2023-01-11T17:15:32.960Z,3.60
2023-01-11T17:20:37.473Z,2.60
2023-01-11T17:25:45.118Z,3.27
2023-01-11T17:30:51.814Z,2.67
2023-01-11T17:35:57.611Z,3.00
2023-01-11T17:41:23.640Z,2.33
2023-01-11T17:46:27.520Z,4.10
2023-01-11T17:51:33.240Z,3.10
2023-01-11T17:56:39.521Z,3.93
2023-01-11T18:01:47.749Z,3.03
2023-01-11T18:06:54.075Z,3.00
2023-01-11T18:12:08.853Z,3.07
2023-01-11T18:17:31.930Z,3.30
2023-01-11T18:22:40.470Z,3.13
2023-01-11T18:27:46.633Z,2.90
2023-01-11T18:32:52.620Z,3.00
2023-01-11T18:37:55.822Z,3.20
2023-01-11T18:43:00.267Z,3.20
2023-01-11T18:48:03.334Z,2.77
2023-01-11T18:53:06.504Z,2.50
2023-01-11T18:58:10.951Z,3.50
2023-01-11T19:08:18.854Z,2.77
2023-01-11T19:13:26.683Z,3.13
2023-01-11T19:18:30.021Z,2.97
2023-01-11T19:23:34.278Z,3.13
2023-01-11T19:28:39.392Z,3.30
2023-01-11T19:33:42.984Z,4.10
2023-01-11T19:38:45.977Z,3.33
2023-01-11T19:43:50.358Z,4.77
2023-01-11T19:48:56.105Z,3.10
2023-01-11T19:53:59.183Z,4.00
2023-01-11T19:59:03.931Z,4.30
2023-01-11T20:04:07.046Z,4.40
2023-01-11T20:09:14.023Z,3.87
2023-01-11T20:14:19.105Z,4.50
2023-01-11T20:19:22.548Z,3.20
2023-01-11T20:24:30.199Z,3.87
2023-01-11T20:29:34.785Z,2.80
2023-01-11T20:34:37.935Z,3.40
2023-01-11T20:39:40.996Z,5.87
2023-01-11T20:44:45.751Z,5.63
2023-01-11T20:49:48.769Z,4.03
2023-01-11T20:54:51.924Z,2.80
2023-01-11T20:59:56.370Z,4.27
2023-01-11T21:04:59.953Z,3.20
2023-01-11T21:10:02.997Z,2.60
2023-01-11T21:15:10.922Z,2.83
2023-01-11T21:20:14.310Z,2.57
2023-01-11T21:25:17.874Z,2.70
2023-01-11T21:30:26.235Z,3.07
2023-01-11T21:35:29.458Z,2.60
2023-01-11T21:40:34.192Z,2.17
2023-01-11T21:45:38.549Z,2.63
2023-01-11T21:50:46.070Z,2.47
2023-01-11T21:55:49.680Z,2.63
2023-01-11T22:00:56.888Z,2.80
2023-01-11T22:06:03.508Z,2.57
2023-01-11T22:11:07.611Z,2.60
2023-01-11T22:16:14.590Z,2.63
2023-01-11T22:21:19.424Z,2.00
2023-01-11T22:26:22.968Z,2.07
2023-01-11T22:31:32.025Z,2.57
2023-01-11T22:36:35.385Z,2.33
2023-01-11T22:41:40.153Z,2.30
2023-01-11T22:46:45.320Z,3.10
2023-01-11T22:51:48.375Z,4.03
2023-01-11T22:56:51.481Z,2.60
2023-01-11T23:01:55.924Z,1.93
2023-01-11T23:06:58.977Z,2.20
2023-01-11T23:12:19.397Z,1.80
2023-01-11T23:17:25.707Z,2.40
2023-01-11T23:22:28.701Z,1.90
2023-01-11T23:27:31.731Z,2.40
2023-01-11T23:32:36.200Z,1.97
2023-01-11T23:37:39.123Z,2.43
2023-01-11T23:42:42.121Z,2.00
2023-01-11T23:47:46.502Z,2.00
2023-01-11T23:52:49.443Z,2.80
2023-01-11T23:58:06.394Z,2.47
